sensor_id;sensor_type;location;lat;lon;timestamp;P1;durP1;ratioP1;P2;durP2;ratioP2
81229;SDS011;70701;44.452;18.652;2023-11-19T00:00:36;49.87;;;27.07;;
81229;SDS011;70701;44.452;18.652;2023-11-19T00:03:02;72.83;;;34.73;;
81229;SDS011;70701;44.452;18.652;2023-11-19T00:05:28;38.17;;;23.23;;
81229;SDS011;70701;44.452;18.652;2023-11-19T00:07:54;42.43;;;25.90;;
81229;SDS011;70701;44.452;18.652;2023-11-19T00:10:20;41.20;;;22.53;;
81229;SDS011;70701;44.452;18.652;2023-11-19T00:12:47;38.90;;;22.20;;
81229;SDS011;70701;44.452;18.652;2023-11-19T00:15:13;39.93;;;23.50;;
81229;SDS011;70701;44.452;18.652;2023-11-19T00:17:40;42.33;;;23.17;;
81229;SDS011;70701;44.452;18.652;2023-11-19T00:20:13;42.77;;;22.23;;
81229;SDS011;70701;44.452;18.652;2023-11-19T00:22:47;38.93;;;23.67;;
81229;SDS011;70701;44.452;18.652;2023-11-19T00:25:19;47.27;;;25.43;;
81229;SDS011;70701;44.452;18.652;2023-11-19T00:27:46;52.47;;;30.43;;
81229;SDS011;70701;44.452;18.652;2023-11-19T00:30:13;45.63;;;26.53;;
81229;SDS011;70701;44.452;18.652;2023-11-19T00:32:39;41.57;;;23.27;;
81229;SDS011;70701;44.452;18.652;2023-11-19T00:35:06;41.17;;;23.47;;
81229;SDS011;70701;44.452;18.652;2023-11-19T00:37:32;41.37;;;24.30;;
81229;SDS011;70701;44.452;18.652;2023-11-19T00:39:58;58.77;;;33.17;;
81229;SDS011;70701;44.452;18.652;2023-11-19T00:42:24;57.77;;;31.97;;
81229;SDS011;70701;44.452;18.652;2023-11-19T00:44:50;61.27;;;33.07;;
81229;SDS011;70701;44.452;18.652;2023-11-19T00:47:16;98.90;;;43.07;;
81229;SDS011;70701;44.452;18.652;2023-11-19T00:49:41;102.50;;;47.63;;
81229;SDS011;70701;44.452;18.652;2023-11-19T00:52:08;88.50;;;43.70;;
81229;SDS011;70701;44.452;18.652;2023-11-19T00:54:34;82.50;;;42.63;;
81229;SDS011;70701;44.452;18.652;2023-11-19T00:57:00;76.27;;;41.80;;
81229;SDS011;70701;44.452;18.652;2023-11-19T00:59:26;75.90;;;45.37;;
81229;SDS011;70701;44.452;18.652;2023-11-19T01:01:53;97.70;;;50.93;;
81229;SDS011;70701;44.452;18.652;2023-11-19T01:04:19;94.27;;;51.77;;
81229;SDS011;70701;44.452;18.652;2023-11-19T01:06:45;85.80;;;47.37;;
81229;SDS011;70701;44.452;18.652;2023-11-19T01:09:11;99.40;;;50.67;;
81229;SDS011;70701;44.452;18.652;2023-11-19T01:11:36;77.27;;;42.40;;
81229;SDS011;70701;44.452;18.652;2023-11-19T01:14:02;85.90;;;45.13;;
81229;SDS011;70701;44.452;18.652;2023-11-19T01:16:28;82.30;;;47.63;;
81229;SDS011;70701;44.452;18.652;2023-11-19T01:18:53;104.23;;;53.00;;
81229;SDS011;70701;44.452;18.652;2023-11-19T01:21:19;88.10;;;42.00;;
81229;SDS011;70701;44.452;18.652;2023-11-19T01:23:45;54.80;;;27.83;;
81229;SDS011;70701;44.452;18.652;2023-11-19T01:26:11;37.97;;;23.10;;
81229;SDS011;70701;44.452;18.652;2023-11-19T01:28:38;37.30;;;22.00;;
81229;SDS011;70701;44.452;18.652;2023-11-19T01:31:05;38.20;;;22.30;;
81229;SDS011;70701;44.452;18.652;2023-11-19T01:33:35;33.23;;;20.93;;
81229;SDS011;70701;44.452;18.652;2023-11-19T01:36:01;50.83;;;25.53;;
81229;SDS011;70701;44.452;18.652;2023-11-19T01:38:27;31.77;;;19.70;;
81229;SDS011;70701;44.452;18.652;2023-11-19T01:40:56;35.07;;;19.77;;
81229;SDS011;70701;44.452;18.652;2023-11-19T01:43:32;39.17;;;22.47;;
81229;SDS011;70701;44.452;18.652;2023-11-19T01:45:59;44.27;;;24.80;;
81229;SDS011;70701;44.452;18.652;2023-11-19T01:48:26;47.77;;;27.07;;
81229;SDS011;70701;44.452;18.652;2023-11-19T01:50:52;63.60;;;29.63;;
81229;SDS011;70701;44.452;18.652;2023-11-19T01:53:19;53.47;;;28.63;;
81229;SDS011;70701;44.452;18.652;2023-11-19T01:55:48;47.43;;;25.87;;
81229;SDS011;70701;44.452;18.652;2023-11-19T01:58:15;46.10;;;25.23;;
81229;SDS011;70701;44.452;18.652;2023-11-19T02:00:42;51.90;;;25.13;;
81229;SDS011;70701;44.452;18.652;2023-11-19T02:03:09;47.30;;;25.83;;
81229;SDS011;70701;44.452;18.652;2023-11-19T02:05:35;45.40;;;23.13;;
81229;SDS011;70701;44.452;18.652;2023-11-19T02:08:02;32.47;;;18.07;;
81229;SDS011;70701;44.452;18.652;2023-11-19T02:10:28;33.50;;;18.30;;
81229;SDS011;70701;44.452;18.652;2023-11-19T02:12:54;33.33;;;18.73;;
81229;SDS011;70701;44.452;18.652;2023-11-19T02:15:20;37.33;;;22.47;;
81229;SDS011;70701;44.452;18.652;2023-11-19T02:17:50;42.17;;;23.40;;
81229;SDS011;70701;44.452;18.652;2023-11-19T02:20:16;42.83;;;23.43;;
81229;SDS011;70701;44.452;18.652;2023-11-19T02:22:45;49.67;;;26.40;;
81229;SDS011;70701;44.452;18.652;2023-11-19T02:25:25;52.03;;;30.20;;
81229;SDS011;70701;44.452;18.652;2023-11-19T02:28:01;60.93;;;33.40;;
81229;SDS011;70701;44.452;18.652;2023-11-19T02:30:28;68.53;;;37.47;;
81229;SDS011;70701;44.452;18.652;2023-11-19T02:35:24;57.30;;;30.93;;
81229;SDS011;70701;44.452;18.652;2023-11-19T02:37:51;55.13;;;29.33;;
81229;SDS011;70701;44.452;18.652;2023-11-19T02:40:16;51.70;;;29.03;;
81229;SDS011;70701;44.452;18.652;2023-11-19T02:42:42;46.97;;;22.97;;
81229;SDS011;70701;44.452;18.652;2023-11-19T02:45:08;37.90;;;22.67;;
81229;SDS011;70701;44.452;18.652;2023-11-19T02:47:39;41.73;;;26.70;;
81229;SDS011;70701;44.452;18.652;2023-11-19T02:50:11;33.33;;;20.30;;
81229;SDS011;70701;44.452;18.652;2023-11-19T02:52:43;38.37;;;20.10;;
81229;SDS011;70701;44.452;18.652;2023-11-19T02:55:11;45.43;;;22.93;;
81229;SDS011;70701;44.452;18.652;2023-11-19T02:57:38;33.23;;;19.37;;
81229;SDS011;70701;44.452;18.652;2023-11-19T03:00:14;37.53;;;21.05;;
81229;SDS011;70701;44.452;18.652;2023-11-19T03:02:41;40.53;;;22.33;;
81229;SDS011;70701;44.452;18.652;2023-11-19T03:05:11;44.10;;;25.33;;
81229;SDS011;70701;44.452;18.652;2023-11-19T03:07:42;35.67;;;21.40;;
81229;SDS011;70701;44.452;18.652;2023-11-19T03:10:09;34.90;;;20.63;;
81229;SDS011;70701;44.452;18.652;2023-11-19T03:12:40;33.97;;;20.70;;
81229;SDS011;70701;44.452;18.652;2023-11-19T03:15:06;38.97;;;22.23;;
81229;SDS011;70701;44.452;18.652;2023-11-19T03:17:35;34.77;;;21.60;;
81229;SDS011;70701;44.452;18.652;2023-11-19T03:20:03;37.30;;;19.90;;
81229;SDS011;70701;44.452;18.652;2023-11-19T03:22:36;41.00;;;21.37;;
81229;SDS011;70701;44.452;18.652;2023-11-19T03:25:03;40.80;;;21.13;;
81229;SDS011;70701;44.452;18.652;2023-11-19T03:27:29;41.83;;;23.30;;
81229;SDS011;70701;44.452;18.652;2023-11-19T03:29:55;41.60;;;23.73;;
81229;SDS011;70701;44.452;18.652;2023-11-19T03:32:20;40.03;;;22.23;;
81229;SDS011;70701;44.452;18.652;2023-11-19T03:34:46;44.20;;;27.53;;
81229;SDS011;70701;44.452;18.652;2023-11-19T03:37:11;42.47;;;25.17;;
81229;SDS011;70701;44.452;18.652;2023-11-19T03:39:42;43.80;;;22.67;;
81229;SDS011;70701;44.452;18.652;2023-11-19T03:42:08;38.83;;;21.53;;
81229;SDS011;70701;44.452;18.652;2023-11-19T03:44:33;32.90;;;20.07;;
81229;SDS011;70701;44.452;18.652;2023-11-19T03:47:00;38.60;;;20.37;;
81229;SDS011;70701;44.452;18.652;2023-11-19T03:49:26;31.87;;;20.83;;
81229;SDS011;70701;44.452;18.652;2023-11-19T03:51:51;36.23;;;21.03;;
81229;SDS011;70701;44.452;18.652;2023-11-19T03:54:17;34.80;;;19.77;;
81229;SDS011;70701;44.452;18.652;2023-11-19T03:56:43;30.37;;;17.43;;
81229;SDS011;70701;44.452;18.652;2023-11-19T03:59:08;30.63;;;18.67;;
81229;SDS011;70701;44.452;18.652;2023-11-19T04:01:35;29.70;;;16.57;;
81229;SDS011;70701;44.452;18.652;2023-11-19T04:04:00;27.27;;;15.90;;
81229;SDS011;70701;44.452;18.652;2023-11-19T04:06:26;30.40;;;17.77;;
81229;SDS011;70701;44.452;18.652;2023-11-19T04:08:52;32.27;;;18.47;;
81229;SDS011;70701;44.452;18.652;2023-11-19T04:11:17;36.73;;;21.37;;
81229;SDS011;70701;44.452;18.652;2023-11-19T04:13:43;34.53;;;21.00;;
81229;SDS011;70701;44.452;18.652;2023-11-19T04:16:09;31.63;;;18.50;;
81229;SDS011;70701;44.452;18.652;2023-11-19T04:18:34;31.80;;;18.53;;
81229;SDS011;70701;44.452;18.652;2023-11-19T04:21:01;26.57;;;15.77;;
81229;SDS011;70701;44.452;18.652;2023-11-19T04:23:26;26.73;;;15.30;;
81229;SDS011;70701;44.452;18.652;2023-11-19T04:25:52;24.60;;;15.50;;
81229;SDS011;70701;44.452;18.652;2023-11-19T04:28:18;25.63;;;15.17;;
81229;SDS011;70701;44.452;18.652;2023-11-19T04:30:43;25.63;;;15.67;;
81229;SDS011;70701;44.452;18.652;2023-11-19T04:33:09;28.73;;;15.43;;
81229;SDS011;70701;44.452;18.652;2023-11-19T04:35:35;28.40;;;15.13;;
81229;SDS011;70701;44.452;18.652;2023-11-19T04:38:01;28.13;;;16.00;;
81229;SDS011;70701;44.452;18.652;2023-11-19T04:40:26;26.80;;;15.53;;
81229;SDS011;70701;44.452;18.652;2023-11-19T04:42:53;25.10;;;15.23;;
81229;SDS011;70701;44.452;18.652;2023-11-19T04:45:18;30.10;;;16.33;;
81229;SDS011;70701;44.452;18.652;2023-11-19T04:47:45;48.90;;;21.07;;
81229;SDS011;70701;44.452;18.652;2023-11-19T04:50:11;45.97;;;22.43;;
81229;SDS011;70701;44.452;18.652;2023-11-19T04:52:39;34.63;;;17.27;;
81229;SDS011;70701;44.452;18.652;2023-11-19T04:55:05;35.77;;;17.90;;
81229;SDS011;70701;44.452;18.652;2023-11-19T04:57:31;36.47;;;16.53;;
81229;SDS011;70701;44.452;18.652;2023-11-19T04:59:58;38.30;;;18.67;;
81229;SDS011;70701;44.452;18.652;2023-11-19T05:02:24;31.13;;;17.87;;
81229;SDS011;70701;44.452;18.652;2023-11-19T05:04:50;23.40;;;15.23;;
81229;SDS011;70701;44.452;18.652;2023-11-19T05:07:15;31.80;;;18.37;;
81229;SDS011;70701;44.452;18.652;2023-11-19T05:09:41;30.20;;;17.90;;
81229;SDS011;70701;44.452;18.652;2023-11-19T05:12:08;30.30;;;17.43;;
81229;SDS011;70701;44.452;18.652;2023-11-19T05:14:37;33.43;;;22.20;;
81229;SDS011;70701;44.452;18.652;2023-11-19T05:17:03;34.43;;;19.30;;
81229;SDS011;70701;44.452;18.652;2023-11-19T05:19:29;28.23;;;19.40;;
81229;SDS011;70701;44.452;18.652;2023-11-19T05:21:54;31.83;;;19.40;;
81229;SDS011;70701;44.452;18.652;2023-11-19T05:24:20;33.90;;;22.87;;
81229;SDS011;70701;44.452;18.652;2023-11-19T05:26:45;35.60;;;21.37;;
81229;SDS011;70701;44.452;18.652;2023-11-19T05:29:12;30.30;;;18.57;;
81229;SDS011;70701;44.452;18.652;2023-11-19T05:31:38;31.60;;;15.87;;
81229;SDS011;70701;44.452;18.652;2023-11-19T05:34:03;27.40;;;16.33;;
81229;SDS011;70701;44.452;18.652;2023-11-19T05:36:29;30.03;;;16.70;;
81229;SDS011;70701;44.452;18.652;2023-11-19T05:38:55;40.43;;;22.20;;
81229;SDS011;70701;44.452;18.652;2023-11-19T05:41:21;52.87;;;30.37;;
81229;SDS011;70701;44.452;18.652;2023-11-19T05:43:46;65.53;;;34.57;;
81229;SDS011;70701;44.452;18.652;2023-11-19T05:46:12;75.60;;;41.67;;
81229;SDS011;70701;44.452;18.652;2023-11-19T05:48:38;61.17;;;31.03;;
81229;SDS011;70701;44.452;18.652;2023-11-19T05:51:04;56.47;;;25.00;;
81229;SDS011;70701;44.452;18.652;2023-11-19T05:53:30;41.63;;;21.90;;
81229;SDS011;70701;44.452;18.652;2023-11-19T05:55:56;34.43;;;16.90;;
81229;SDS011;70701;44.452;18.652;2023-11-19T05:58:26;30.83;;;16.67;;
81229;SDS011;70701;44.452;18.652;2023-11-19T06:00:54;28.80;;;16.20;;
81229;SDS011;70701;44.452;18.652;2023-11-19T06:03:21;31.00;;;17.50;;
81229;SDS011;70701;44.452;18.652;2023-11-19T06:05:47;36.00;;;20.30;;
81229;SDS011;70701;44.452;18.652;2023-11-19T06:08:13;67.90;;;32.70;;
81229;SDS011;70701;44.452;18.652;2023-11-19T06:10:40;39.67;;;23.80;;
81229;SDS011;70701;44.452;18.652;2023-11-19T06:13:06;37.90;;;21.50;;
81229;SDS011;70701;44.452;18.652;2023-11-19T06:15:32;49.83;;;25.50;;
81229;SDS011;70701;44.452;18.652;2023-11-19T06:17:58;35.93;;;21.97;;
81229;SDS011;70701;44.452;18.652;2023-11-19T06:20:32;42.37;;;25.10;;
81229;SDS011;70701;44.452;18.652;2023-11-19T06:22:58;47.43;;;27.60;;
81229;SDS011;70701;44.452;18.652;2023-11-19T06:25:24;39.23;;;25.07;;
81229;SDS011;70701;44.452;18.652;2023-11-19T06:27:50;56.97;;;33.03;;
81229;SDS011;70701;44.452;18.652;2023-11-19T06:30:16;59.63;;;31.50;;
81229;SDS011;70701;44.452;18.652;2023-11-19T06:32:42;86.30;;;37.33;;
81229;SDS011;70701;44.452;18.652;2023-11-19T06:35:08;99.00;;;48.23;;
81229;SDS011;70701;44.452;18.652;2023-11-19T06:37:41;110.33;;;51.33;;
81229;SDS011;70701;44.452;18.652;2023-11-19T06:40:08;61.07;;;36.20;;
81229;SDS011;70701;44.452;18.652;2023-11-19T06:42:34;50.80;;;31.10;;
81229;SDS011;70701;44.452;18.652;2023-11-19T06:45:01;68.70;;;34.73;;
81229;SDS011;70701;44.452;18.652;2023-11-19T06:47:28;72.77;;;36.93;;
81229;SDS011;70701;44.452;18.652;2023-11-19T06:49:54;100.07;;;46.43;;
81229;SDS011;70701;44.452;18.652;2023-11-19T06:52:20;103.90;;;52.30;;
81229;SDS011;70701;44.452;18.652;2023-11-19T06:54:46;84.67;;;43.93;;
81229;SDS011;70701;44.452;18.652;2023-11-19T06:57:12;73.60;;;41.30;;
81229;SDS011;70701;44.452;18.652;2023-11-19T06:59:38;62.00;;;36.13;;
81229;SDS011;70701;44.452;18.652;2023-11-19T07:02:05;71.03;;;37.80;;
81229;SDS011;70701;44.452;18.652;2023-11-19T07:04:31;66.23;;;35.80;;
81229;SDS011;70701;44.452;18.652;2023-11-19T07:06:58;73.97;;;37.20;;
81229;SDS011;70701;44.452;18.652;2023-11-19T07:09:25;74.43;;;38.87;;
81229;SDS011;70701;44.452;18.652;2023-11-19T07:11:51;55.13;;;30.60;;
81229;SDS011;70701;44.452;18.652;2023-11-19T07:14:17;50.50;;;29.00;;
81229;SDS011;70701;44.452;18.652;2023-11-19T07:16:43;54.80;;;31.43;;
81229;SDS011;70701;44.452;18.652;2023-11-19T07:19:10;44.00;;;24.87;;
81229;SDS011;70701;44.452;18.652;2023-11-19T07:21:36;47.00;;;24.73;;
81229;SDS011;70701;44.452;18.652;2023-11-19T07:24:09;34.58;;;19.83;;
81229;SDS011;70701;44.452;18.652;2023-11-19T07:26:35;40.67;;;21.87;;
81229;SDS011;70701;44.452;18.652;2023-11-19T07:29:02;38.37;;;22.23;;
81229;SDS011;70701;44.452;18.652;2023-11-19T07:31:28;38.30;;;21.77;;
81229;SDS011;70701;44.452;18.652;2023-11-19T07:33:54;41.00;;;24.00;;
81229;SDS011;70701;44.452;18.652;2023-11-19T07:36:20;52.97;;;27.77;;
81229;SDS011;70701;44.452;18.652;2023-11-19T07:38:45;45.60;;;24.10;;
81229;SDS011;70701;44.452;18.652;2023-11-19T07:41:13;31.03;;;17.43;;
81229;SDS011;70701;44.452;18.652;2023-11-19T07:43:39;27.83;;;18.90;;
81229;SDS011;70701;44.452;18.652;2023-11-19T07:46:06;26.90;;;16.30;;
81229;SDS011;70701;44.452;18.652;2023-11-19T07:48:36;27.37;;;18.43;;
81229;SDS011;70701;44.452;18.652;2023-11-19T07:51:01;30.97;;;18.23;;
81229;SDS011;70701;44.452;18.652;2023-11-19T07:53:27;29.43;;;19.50;;
81229;SDS011;70701;44.452;18.652;2023-11-19T07:55:53;31.40;;;20.07;;
81229;SDS011;70701;44.452;18.652;2023-11-19T07:58:19;39.03;;;23.13;;
81229;SDS011;70701;44.452;18.652;2023-11-19T08:00:44;51.13;;;28.60;;
81229;SDS011;70701;44.452;18.652;2023-11-19T08:03:10;59.53;;;33.93;;
81229;SDS011;70701;44.452;18.652;2023-11-19T08:05:36;96.80;;;51.07;;
81229;SDS011;70701;44.452;18.652;2023-11-19T08:08:01;86.30;;;44.00;;
81229;SDS011;70701;44.452;18.652;2023-11-19T08:10:27;57.73;;;34.43;;
81229;SDS011;70701;44.452;18.652;2023-11-19T08:12:54;65.60;;;34.47;;
81229;SDS011;70701;44.452;18.652;2023-11-19T08:15:19;73.77;;;39.10;;
81229;SDS011;70701;44.452;18.652;2023-11-19T08:17:45;55.97;;;34.50;;
81229;SDS011;70701;44.452;18.652;2023-11-19T08:20:10;55.53;;;35.30;;
81229;SDS011;70701;44.452;18.652;2023-11-19T08:22:36;51.47;;;31.43;;
81229;SDS011;70701;44.452;18.652;2023-11-19T08:25:05;42.67;;;27.00;;
81229;SDS011;70701;44.452;18.652;2023-11-19T08:27:31;56.40;;;35.60;;
81229;SDS011;70701;44.452;18.652;2023-11-19T08:29:57;48.90;;;29.03;;
81229;SDS011;70701;44.452;18.652;2023-11-19T08:32:24;42.10;;;27.07;;
81229;SDS011;70701;44.452;18.652;2023-11-19T08:34:50;50.63;;;32.30;;
81229;SDS011;70701;44.452;18.652;2023-11-19T08:37:16;37.30;;;27.13;;
81229;SDS011;70701;44.452;18.652;2023-11-19T08:39:49;35.00;;;23.77;;
81229;SDS011;70701;44.452;18.652;2023-11-19T08:42:18;27.87;;;18.67;;
81229;SDS011;70701;44.452;18.652;2023-11-19T08:44:44;30.77;;;19.47;;
81229;SDS011;70701;44.452;18.652;2023-11-19T08:47:15;23.07;;;16.03;;
81229;SDS011;70701;44.452;18.652;2023-11-19T08:49:43;29.13;;;17.93;;
81229;SDS011;70701;44.452;18.652;2023-11-19T08:52:09;26.33;;;17.30;;
81229;SDS011;70701;44.452;18.652;2023-11-19T08:54:36;22.53;;;15.00;;
81229;SDS011;70701;44.452;18.652;2023-11-19T08:57:02;19.80;;;13.63;;
81229;SDS011;70701;44.452;18.652;2023-11-19T08:59:29;39.63;;;23.90;;
81229;SDS011;70701;44.452;18.652;2023-11-19T09:01:55;37.60;;;19.43;;
81229;SDS011;70701;44.452;18.652;2023-11-19T09:04:21;26.60;;;18.10;;
81229;SDS011;70701;44.452;18.652;2023-11-19T09:06:48;52.20;;;24.50;;
81229;SDS011;70701;44.452;18.652;2023-11-19T09:09:14;33.03;;;20.37;;
81229;SDS011;70701;44.452;18.652;2023-11-19T09:11:40;23.80;;;15.20;;
81229;SDS011;70701;44.452;18.652;2023-11-19T09:14:06;20.87;;;13.20;;
81229;SDS011;70701;44.452;18.652;2023-11-19T09:16:31;20.83;;;12.47;;
81229;SDS011;70701;44.452;18.652;2023-11-19T09:18:57;22.93;;;14.23;;
81229;SDS011;70701;44.452;18.652;2023-11-19T09:21:25;28.47;;;15.87;;
81229;SDS011;70701;44.452;18.652;2023-11-19T09:23:54;24.43;;;16.60;;
81229;SDS011;70701;44.452;18.652;2023-11-19T09:26:20;24.73;;;14.80;;
81229;SDS011;70701;44.452;18.652;2023-11-19T09:28:46;18.83;;;13.07;;
81229;SDS011;70701;44.452;18.652;2023-11-19T09:31:18;27.70;;;17.40;;
81229;SDS011;70701;44.452;18.652;2023-11-19T09:33:44;23.97;;;16.73;;
81229;SDS011;70701;44.452;18.652;2023-11-19T09:36:13;30.63;;;18.10;;
81229;SDS011;70701;44.452;18.652;2023-11-19T09:38:43;29.10;;;17.93;;
81229;SDS011;70701;44.452;18.652;2023-11-19T09:41:09;32.27;;;20.70;;
81229;SDS011;70701;44.452;18.652;2023-11-19T09:43:38;29.87;;;18.43;;
81229;SDS011;70701;44.452;18.652;2023-11-19T09:46:05;31.27;;;20.03;;
81229;SDS011;70701;44.452;18.652;2023-11-19T09:48:32;40.50;;;23.10;;
81229;SDS011;70701;44.452;18.652;2023-11-19T09:51:00;30.03;;;20.27;;
81229;SDS011;70701;44.452;18.652;2023-11-19T09:53:27;31.20;;;20.30;;
81229;SDS011;70701;44.452;18.652;2023-11-19T09:55:53;41.07;;;25.90;;
81229;SDS011;70701;44.452;18.652;2023-11-19T09:58:21;37.40;;;24.33;;
81229;SDS011;70701;44.452;18.652;2023-11-19T10:00:47;35.63;;;20.90;;
81229;SDS011;70701;44.452;18.652;2023-11-19T10:03:13;36.17;;;21.47;;
81229;SDS011;70701;44.452;18.652;2023-11-19T10:05:40;36.37;;;22.10;;
81229;SDS011;70701;44.452;18.652;2023-11-19T10:08:06;41.10;;;24.87;;
81229;SDS011;70701;44.452;18.652;2023-11-19T10:10:33;41.03;;;23.73;;
81229;SDS011;70701;44.452;18.652;2023-11-19T10:12:59;39.80;;;22.03;;
81229;SDS011;70701;44.452;18.652;2023-11-19T10:15:26;36.60;;;22.87;;
81229;SDS011;70701;44.452;18.652;2023-11-19T10:17:58;39.63;;;22.93;;
81229;SDS011;70701;44.452;18.652;2023-11-19T10:20:25;31.43;;;21.63;;
81229;SDS011;70701;44.452;18.652;2023-11-19T10:22:54;35.73;;;20.73;;
81229;SDS011;70701;44.452;18.652;2023-11-19T10:25:27;27.43;;;18.93;;
81229;SDS011;70701;44.452;18.652;2023-11-19T10:27:54;27.35;;;18.70;;
81229;SDS011;70701;44.452;18.652;2023-11-19T10:30:24;30.27;;;18.37;;
81229;SDS011;70701;44.452;18.652;2023-11-19T10:35:53;28.03;;;17.00;;
81229;SDS011;70701;44.452;18.652;2023-11-19T10:38:22;28.03;;;16.93;;
81229;SDS011;70701;44.452;18.652;2023-11-19T10:40:48;23.87;;;16.70;;
81229;SDS011;70701;44.452;18.652;2023-11-19T10:43:16;27.13;;;16.17;;
81229;SDS011;70701;44.452;18.652;2023-11-19T10:45:42;23.50;;;16.37;;
81229;SDS011;70701;44.452;18.652;2023-11-19T10:48:09;21.43;;;14.63;;
81229;SDS011;70701;44.452;18.652;2023-11-19T10:50:38;19.87;;;13.53;;
81229;SDS011;70701;44.452;18.652;2023-11-19T10:53:06;22.80;;;14.70;;
81229;SDS011;70701;44.452;18.652;2023-11-19T10:55:34;20.70;;;14.20;;
81229;SDS011;70701;44.452;18.652;2023-11-19T10:58:04;23.23;;;14.93;;
81229;SDS011;70701;44.452;18.652;2023-11-19T11:03:08;27.73;;;15.82;;
81229;SDS011;70701;44.452;18.652;2023-11-19T11:05:36;26.67;;;16.13;;
81229;SDS011;70701;44.452;18.652;2023-11-19T11:08:04;25.47;;;17.10;;
81229;SDS011;70701;44.452;18.652;2023-11-19T11:10:32;28.63;;;18.10;;
81229;SDS011;70701;44.452;18.652;2023-11-19T11:13:03;26.40;;;17.33;;
81229;SDS011;70701;44.452;18.652;2023-11-19T11:15:29;29.93;;;17.60;;
81229;SDS011;70701;44.452;18.652;2023-11-19T11:18:00;25.33;;;16.93;;
81229;SDS011;70701;44.452;18.652;2023-11-19T11:20:28;20.37;;;13.03;;
81229;SDS011;70701;44.452;18.652;2023-11-19T11:28:31;19.07;;;13.17;;
81229;SDS011;70701;44.452;18.652;2023-11-19T11:36:53;17.97;;;11.53;;
81229;SDS011;70701;44.452;18.652;2023-11-19T11:39:44;18.53;;;11.30;;
81229;SDS011;70701;44.452;18.652;2023-11-19T11:42:54;18.53;;;11.70;;
81229;SDS011;70701;44.452;18.652;2023-11-19T11:50:12;17.33;;;11.80;;
81229;SDS011;70701;44.452;18.652;2023-11-19T11:55:34;18.50;;;13.13;;
81229;SDS011;70701;44.452;18.652;2023-11-19T11:58:07;16.87;;;11.83;;
81229;SDS011;70701;44.452;18.652;2023-11-19T12:00:37;30.67;;;17.30;;
81229;SDS011;70701;44.452;18.652;2023-11-19T12:03:05;25.97;;;15.83;;
81229;SDS011;70701;44.452;18.652;2023-11-19T12:05:32;22.70;;;14.83;;
81229;SDS011;70701;44.452;18.652;2023-11-19T12:08:05;23.77;;;16.57;;
81229;SDS011;70701;44.452;18.652;2023-11-19T12:10:37;22.48;;;14.68;;
81229;SDS011;70701;44.452;18.652;2023-11-19T12:13:13;23.03;;;15.17;;
81229;SDS011;70701;44.452;18.652;2023-11-19T12:20:51;25.00;;;16.63;;
81229;SDS011;70701;44.452;18.652;2023-11-19T12:23:17;26.47;;;17.20;;
81229;SDS011;70701;44.452;18.652;2023-11-19T12:25:42;33.43;;;20.20;;
81229;SDS011;70701;44.452;18.652;2023-11-19T12:28:13;37.00;;;23.63;;
81229;SDS011;70701;44.452;18.652;2023-11-19T12:30:39;30.13;;;18.97;;
81229;SDS011;70701;44.452;18.652;2023-11-19T12:33:08;31.03;;;21.83;;
81229;SDS011;70701;44.452;18.652;2023-11-19T12:35:42;30.23;;;21.27;;
81229;SDS011;70701;44.452;18.652;2023-11-19T12:38:18;30.50;;;23.88;;
81229;SDS011;70701;44.452;18.652;2023-11-19T12:41:07;33.30;;;23.50;;
81229;SDS011;70701;44.452;18.652;2023-11-19T12:43:36;31.10;;;20.63;;
81229;SDS011;70701;44.452;18.652;2023-11-19T12:46:21;20.80;;;13.67;;
81229;SDS011;70701;44.452;18.652;2023-11-19T12:48:48;19.60;;;12.43;;
81229;SDS011;70701;44.452;18.652;2023-11-19T12:51:14;20.70;;;12.90;;
81229;SDS011;70701;44.452;18.652;2023-11-19T12:53:53;28.20;;;17.63;;
81229;SDS011;70701;44.452;18.652;2023-11-19T12:56:23;38.17;;;24.93;;
81229;SDS011;70701;44.452;18.652;2023-11-19T12:58:50;22.43;;;14.80;;
81229;SDS011;70701;44.452;18.652;2023-11-19T13:01:19;24.20;;;16.87;;
81229;SDS011;70701;44.452;18.652;2023-11-19T13:03:45;24.00;;;15.40;;
81229;SDS011;70701;44.452;18.652;2023-11-19T13:06:12;25.20;;;15.63;;
81229;SDS011;70701;44.452;18.652;2023-11-19T13:08:45;23.47;;;15.70;;
81229;SDS011;70701;44.452;18.652;2023-11-19T13:11:13;19.43;;;13.27;;
81229;SDS011;70701;44.452;18.652;2023-11-19T13:13:59;19.60;;;12.60;;
81229;SDS011;70701;44.452;18.652;2023-11-19T13:16:26;22.30;;;13.20;;
81229;SDS011;70701;44.452;18.652;2023-11-19T13:18:53;18.40;;;11.20;;
81229;SDS011;70701;44.452;18.652;2023-11-19T13:21:19;17.33;;;11.23;;
81229;SDS011;70701;44.452;18.652;2023-11-19T13:23:45;18.63;;;12.47;;
81229;SDS011;70701;44.452;18.652;2023-11-19T13:26:10;22.03;;;14.87;;
81229;SDS011;70701;44.452;18.652;2023-11-19T13:28:37;28.27;;;17.27;;
81229;SDS011;70701;44.452;18.652;2023-11-19T13:31:03;25.53;;;16.13;;
81229;SDS011;70701;44.452;18.652;2023-11-19T13:33:29;27.07;;;17.13;;
81229;SDS011;70701;44.452;18.652;2023-11-19T13:35:55;27.90;;;16.97;;
81229;SDS011;70701;44.452;18.652;2023-11-19T13:38:22;26.53;;;16.13;;
81229;SDS011;70701;44.452;18.652;2023-11-19T13:40:49;39.07;;;18.80;;
81229;SDS011;70701;44.452;18.652;2023-11-19T13:43:16;36.67;;;20.83;;
81229;SDS011;70701;44.452;18.652;2023-11-19T13:45:42;48.03;;;20.30;;
81229;SDS011;70701;44.452;18.652;2023-11-19T13:48:08;32.73;;;17.07;;
81229;SDS011;70701;44.452;18.652;2023-11-19T13:50:34;25.60;;;15.70;;
81229;SDS011;70701;44.452;18.652;2023-11-19T13:53:00;28.13;;;18.37;;
81229;SDS011;70701;44.452;18.652;2023-11-19T13:55:26;29.17;;;17.47;;
81229;SDS011;70701;44.452;18.652;2023-11-19T13:57:52;26.40;;;17.00;;
81229;SDS011;70701;44.452;18.652;2023-11-19T14:00:17;26.90;;;16.67;;
81229;SDS011;70701;44.452;18.652;2023-11-19T14:02:47;28.20;;;16.77;;
81229;SDS011;70701;44.452;18.652;2023-11-19T14:05:13;35.47;;;20.33;;
81229;SDS011;70701;44.452;18.652;2023-11-19T14:07:40;43.97;;;26.73;;
81229;SDS011;70701;44.452;18.652;2023-11-19T14:10:07;43.57;;;23.93;;
81229;SDS011;70701;44.452;18.652;2023-11-19T14:12:39;31.13;;;18.97;;
81229;SDS011;70701;44.452;18.652;2023-11-19T14:15:06;29.47;;;17.10;;
81229;SDS011;70701;44.452;18.652;2023-11-19T14:17:34;29.90;;;15.67;;
81229;SDS011;70701;44.452;18.652;2023-11-19T14:20:01;46.50;;;24.13;;
81229;SDS011;70701;44.452;18.652;2023-11-19T14:22:30;58.47;;;30.70;;
81229;SDS011;70701;44.452;18.652;2023-11-19T14:24:55;46.33;;;26.70;;
81229;SDS011;70701;44.452;18.652;2023-11-19T14:27:21;38.93;;;22.53;;
81229;SDS011;70701;44.452;18.652;2023-11-19T14:29:47;35.33;;;21.50;;
81229;SDS011;70701;44.452;18.652;2023-11-19T14:32:13;30.80;;;16.70;;
81229;SDS011;70701;44.452;18.652;2023-11-19T14:34:39;24.50;;;15.53;;
81229;SDS011;70701;44.452;18.652;2023-11-19T14:37:04;31.60;;;19.70;;
81229;SDS011;70701;44.452;18.652;2023-11-19T14:39:30;33.50;;;21.90;;
81229;SDS011;70701;44.452;18.652;2023-11-19T14:41:59;39.60;;;23.47;;